sensor_id;sensor_type;location;lat;lon;timestamp;pressure;altitude;pressure_sealevel;temperature;humidity
52777;BME280;38656;54.260;20.822;2022-12-05T00:01:32;102124.97;;;-0.19;100.00
52777;BME280;38656;54.260;20.822;2022-12-05T00:04:06;102118.06;;;-0.16;100.00
52777;BME280;38656;54.260;20.822;2022-12-05T00:06:34;102123.28;;;-0.20;100.00
52777;BME280;38656;54.260;20.822;2022-12-05T00:09:01;102125.00;;;-0.22;100.00
52777;BME280;38656;54.260;20.822;2022-12-05T00:11:33;102124.19;;;-0.27;100.00
52777;BME280;38656;54.260;20.822;2022-12-05T00:14:03;102112.91;;;-0.20;100.00
52777;BME280;38656;54.260;20.822;2022-12-05T00:16:31;102117.22;;;-0.23;100.00
52777;BME280;38656;54.260;20.822;2022-12-05T00:18:59;102116.44;;;-0.31;100.00
52777;BME280;38656;54.260;20.822;2022-12-05T00:21:28;102105.84;;;-0.08;100.00
52777;BME280;38656;54.260;20.822;2022-12-05T00:23:56;102107.53;;;-0.01;100.00
52777;BME280;38656;54.260;20.822;2022-12-05T00:26:23;102090.31;;;-0.11;100.00
52777;BME280;38656;54.260;20.822;2022-12-05T00:28:49;102100.66;;;-0.08;100.00
52777;BME280;38656;54.260;20.822;2022-12-05T00:31:19;102101.66;;;-0.22;100.00
52777;BME280;38656;54.260;20.822;2022-12-05T00:33:46;102095.69;;;-0.33;100.00
52777;BME280;38656;54.260;20.822;2022-12-05T00:36:15;102094.66;;;-0.13;100.00
52777;BME280;38656;54.260;20.822;2022-12-05T00:38:42;102090.41;;;-0.24;100.00
52777;BME280;38656;54.260;20.822;2022-12-05T00:41:12;102094.59;;;-0.06;100.00
52777;BME280;38656;54.260;20.822;2022-12-05T00:43:39;102104.34;;;-0.34;100.00
52777;BME280;38656;54.260;20.822;2022-12-05T00:46:11;102099.00;;;-0.15;100.00
52777;BME280;38656;54.260;20.822;2022-12-05T00:48:38;102099.00;;;-0.15;100.00
52777;BME280;38656;54.260;20.822;2022-12-05T00:51:08;102088.63;;;-0.17;100.00
52777;BME280;38656;54.260;20.822;2022-12-05T00:53:35;102092.06;;;-0.13;100.00
52777;BME280;38656;54.260;20.822;2022-12-05T00:56:06;102085.16;;;-0.14;100.00
52777;BME280;38656;54.260;20.822;2022-12-05T00:58:33;102096.56;;;-0.36;100.00
52777;BME280;38656;54.260;20.822;2022-12-05T01:01:14;102092.09;;;-0.16;100.00
52777;BME280;38656;54.260;20.822;2022-12-05T01:03:42;102106.75;;;-0.14;100.00
52777;BME280;38656;54.260;20.822;2022-12-05T01:06:09;102106.06;;;-0.30;100.00
52777;BME280;38656;54.260;20.822;2022-12-05T01:08:36;102101.63;;;-0.19;100.00
52777;BME280;38656;54.260;20.822;2022-12-05T01:11:03;102112.13;;;-0.34;100.00
52777;BME280;38656;54.260;20.822;2022-12-05T01:13:30;102099.94;;;-0.26;100.00
52777;BME280;38656;54.260;20.822;2022-12-05T01:15:56;102098.97;;;-0.12;100.00
52777;BME280;38656;54.260;20.822;2022-12-05T01:18:24;102099.19;;;-0.37;100.00
52777;BME280;38656;54.260;20.822;2022-12-05T01:20:51;102093.13;;;-0.41;100.00
52777;BME280;38656;54.260;20.822;2022-12-05T01:23:17;102087.78;;;-0.19;100.00
52777;BME280;38656;54.260;20.822;2022-12-05T01:25:46;102082.56;;;-0.14;100.00
52777;BME280;38656;54.260;20.822;2022-12-05T01:28:13;102083.56;;;-0.31;100.00
52777;BME280;38656;54.260;20.822;2022-12-05T01:30:42;102093.91;;;-0.26;100.00
52777;BME280;38656;54.260;20.822;2022-12-05T01:33:09;102088.66;;;-0.22;100.00
52777;BME280;38656;54.260;20.822;2022-12-05T01:35:36;102100.16;;;-0.52;100.00
52777;BME280;38656;54.260;20.822;2022-12-05T01:38:04;102097.63;;;-0.60;100.00
52777;BME280;38656;54.260;20.822;2022-12-05T01:40:31;102077.63;;;-0.48;100.00
52777;BME280;38656;54.260;20.822;2022-12-05T01:42:57;102069.69;;;-0.27;100.00
52777;BME280;38656;54.260;20.822;2022-12-05T01:45:36;102070.69;;;-0.42;100.00
52777;BME280;38656;54.260;20.822;2022-12-05T01:48:05;102074.97;;;-0.42;100.00
52777;BME280;38656;54.260;20.822;2022-12-05T01:50:34;102079.22;;;-0.32;100.00
52777;BME280;38656;54.260;20.822;2022-12-05T01:53:01;102074.94;;;-0.33;100.00
52777;BME280;38656;54.260;20.822;2022-12-05T01:55:28;102071.56;;;-0.44;100.00
52777;BME280;38656;54.260;20.822;2022-12-05T01:57:56;102062.94;;;-0.48;100.00
52777;BME280;38656;54.260;20.822;2022-12-05T02:00:23;102065.50;;;-0.42;100.00
52777;BME280;38656;54.260;20.822;2022-12-05T02:02:59;102061.22;;;-0.50;100.00
52777;BME280;38656;54.260;20.822;2022-12-05T02:05:30;102059.38;;;-0.34;100.00
52777;BME280;38656;54.260;20.822;2022-12-05T02:07:58;102069.91;;;-0.55;100.00
52777;BME280;38656;54.260;20.822;2022-12-05T02:10:27;102054.22;;;-0.42;100.00
52777;BME280;38656;54.260;20.822;2022-12-05T02:13:00;102052.56;;;-0.46;100.00
52777;BME280;38656;54.260;20.822;2022-12-05T02:15:49;102045.47;;;-0.29;100.00
52777;BME280;38656;54.260;20.822;2022-12-05T02:18:38;102045.66;;;-0.50;100.00
52777;BME280;38656;54.260;20.822;2022-12-05T02:21:28;102054.13;;;-0.27;100.00
52777;BME280;38656;54.260;20.822;2022-12-05T02:24:25;102047.41;;;-0.51;100.00
52777;BME280;38656;54.260;20.822;2022-12-05T02:29:46;102050.66;;;-0.29;100.00
52777;BME280;38656;54.260;20.822;2022-12-05T02:35:53;102059.44;;;-0.45;100.00
52777;BME280;38656;54.260;20.822;2022-12-05T02:43:45;102058.59;;;-0.46;100.00
52777;BME280;38656;54.260;20.822;2022-12-05T02:46:16;102059.44;;;-0.45;100.00
52777;BME280;38656;54.260;20.822;2022-12-05T02:48:46;102062.06;;;-0.47;100.00
52777;BME280;38656;54.260;20.822;2022-12-05T02:51:17;102054.22;;;-0.39;100.00
52777;BME280;38656;54.260;20.822;2022-12-05T02:53:45;102056.78;;;-0.36;100.00
52777;BME280;38656;54.260;20.822;2022-12-05T02:56:14;102052.34;;;-0.25;100.00
52777;BME280;38656;54.260;20.822;2022-12-05T02:58:46;102055.97;;;-0.44;100.00
52777;BME280;38656;54.260;20.822;2022-12-05T03:01:13;102055.19;;;-0.49;100.00
52777;BME280;38656;54.260;20.822;2022-12-05T03:03:40;102056.94;;;-0.56;100.00
52777;BME280;38656;54.260;20.822;2022-12-05T03:06:15;102040.41;;;-0.44;100.00
52777;BME280;38656;54.260;20.822;2022-12-05T03:08:57;102040.38;;;-0.40;100.00
52777;BME280;38656;54.260;20.822;2022-12-05T03:11:30;102040.47;;;-0.50;100.00
52777;BME280;38656;54.260;20.822;2022-12-05T03:14:01;102038.78;;;-0.58;100.00
52777;BME280;38656;54.260;20.822;2022-12-05T03:16:35;102040.59;;;-0.66;100.00
52777;BME280;38656;54.260;20.822;2022-12-05T03:19:09;102034.50;;;-0.60;100.00
52777;BME280;38656;54.260;20.822;2022-12-05T03:21:39;102033.69;;;-0.68;100.00
52777;BME280;38656;54.260;20.822;2022-12-05T03:24:10;102034.59;;;-0.76;100.00
52777;BME280;38656;54.260;20.822;2022-12-05T03:29:28;102030.91;;;-0.45;100.00
52777;BME280;38656;54.260;20.822;2022-12-05T03:37:40;102034.66;;;-0.80;100.00
52777;BME280;38656;54.260;20.822;2022-12-05T03:40:36;102032.00;;;-0.74;100.00
52777;BME280;38656;54.260;20.822;2022-12-05T03:43:14;102032.75;;;-0.58;100.00
52777;BME280;38656;54.260;20.822;2022-12-05T03:45:51;102040.69;;;-0.75;100.00
52777;BME280;38656;54.260;20.822;2022-12-05T03:48:30;102034.44;;;-0.51;100.00
52777;BME280;38656;54.260;20.822;2022-12-05T03:50:59;102032.78;;;-0.61;100.00
52777;BME280;38656;54.260;20.822;2022-12-05T03:53:39;102030.19;;;-0.63;100.00
52777;BME280;38656;54.260;20.822;2022-12-05T03:56:12;102026.72;;;-0.63;100.00
52777;BME280;38656;54.260;20.822;2022-12-05T03:58:51;102027.66;;;-0.67;100.00
52777;BME280;38656;54.260;20.822;2022-12-05T04:01:21;102024.97;;;-0.57;100.00
52777;BME280;38656;54.260;20.822;2022-12-05T04:03:53;102024.09;;;-0.57;100.00
52777;BME280;38656;54.260;20.822;2022-12-05T04:06:34;102016.34;;;-0.59;100.00
52777;BME280;38656;54.260;20.822;2022-12-05T04:09:11;102029.31;;;-0.62;100.00
52777;BME280;38656;54.260;20.822;2022-12-05T04:11:50;102023.22;;;-0.58;100.00
52777;BME280;38656;54.260;20.822;2022-12-05T04:14:35;102024.16;;;-0.66;100.00
52777;BME280;38656;54.260;20.822;2022-12-05T04:17:18;102016.31;;;-0.56;100.00
52777;BME280;38656;54.260;20.822;2022-12-05T04:23:10;102016.44;;;-0.74;100.00
52777;BME280;38656;54.260;20.822;2022-12-05T04:25:45;102016.47;;;-0.77;100.00
52777;BME280;38656;54.260;20.822;2022-12-05T04:28:33;102014.66;;;-0.66;100.00
52777;BME280;38656;54.260;20.822;2022-12-05T04:31:13;102014.72;;;-0.72;100.00
52777;BME280;38656;54.260;20.822;2022-12-05T04:33:49;102010.41;;;-0.76;100.00
52777;BME280;38656;54.260;20.822;2022-12-05T04:36:24;102004.38;;;-0.75;100.00
52777;BME280;38656;54.260;20.822;2022-12-05T04:39:02;102009.41;;;-0.60;100.00
52777;BME280;38656;54.260;20.822;2022-12-05T04:41:40;102004.28;;;-0.66;100.00
52777;BME280;38656;54.260;20.822;2022-12-05T04:44:10;102000.81;;;-0.66;100.00
52777;BME280;38656;54.260;20.822;2022-12-05T04:46:40;102009.47;;;-0.66;100.00
52777;BME280;38656;54.260;20.822;2022-12-05T04:49:16;102004.38;;;-0.75;100.00
52777;BME280;38656;54.260;20.822;2022-12-05T04:51:44;102006.09;;;-0.76;100.00
52777;BME280;38656;54.260;20.822;2022-12-05T04:54:20;102002.69;;;-0.82;100.00
52777;BME280;38656;54.260;20.822;2022-12-05T04:56:50;101989.72;;;-0.81;100.00
52777;BME280;38656;54.260;20.822;2022-12-05T04:59:17;102000.91;;;-0.77;100.00
52777;BME280;38656;54.260;20.822;2022-12-05T05:01:56;102008.66;;;-0.73;100.00
52777;BME280;38656;54.260;20.822;2022-12-05T05:04:40;101995.75;;;-0.80;100.00
52777;BME280;38656;54.260;20.822;2022-12-05T05:07:09;101999.19;;;-0.81;100.00
52777;BME280;38656;54.260;20.822;2022-12-05T05:09:37;102004.38;;;-0.77;100.00
52777;BME280;38656;54.260;20.822;2022-12-05T05:12:04;102005.19;;;-0.70;100.00
52777;BME280;38656;54.260;20.822;2022-12-05T05:14:30;102000.97;;;-0.83;100.00
52777;BME280;38656;54.260;20.822;2022-12-05T05:16:57;102003.50;;;-0.77;100.00
52777;BME280;38656;54.260;20.822;2022-12-05T05:19:24;102000.97;;;-0.83;100.00
52777;BME280;38656;54.260;20.822;2022-12-05T05:21:51;102014.84;;;-0.91;100.00
52777;BME280;38656;54.260;20.822;2022-12-05T05:24:21;102007.16;;;-1.06;100.00
52777;BME280;38656;54.260;20.822;2022-12-05T05:26:48;101996.56;;;-0.74;100.00
52777;BME280;38656;54.260;20.822;2022-12-05T05:29:15;102006.09;;;-0.79;100.00
52777;BME280;38656;54.260;20.822;2022-12-05T05:31:41;102000.88;;;-0.74;100.00
52777;BME280;38656;54.260;20.822;2022-12-05T05:34:09;102004.41;;;-0.84;100.00
52777;BME280;38656;54.260;20.822;2022-12-05T05:36:36;102006.09;;;-0.77;100.00
52777;BME280;38656;54.260;20.822;2022-12-05T05:39:04;102010.47;;;-0.84;100.00
52777;BME280;38656;54.260;20.822;2022-12-05T05:41:33;102009.56;;;-0.81;100.00
52777;BME280;38656;54.260;20.822;2022-12-05T05:44:00;102009.53;;;-0.74;100.00
52777;BME280;38656;54.260;20.822;2022-12-05T05:46:32;102002.63;;;-0.75;100.00
52777;BME280;38656;54.260;20.822;2022-12-05T05:48:59;102009.56;;;-0.81;100.00
52777;BME280;38656;54.260;20.822;2022-12-05T05:51:25;101997.56;;;-0.88;100.00
52777;BME280;38656;54.260;20.822;2022-12-05T05:53:54;102004.25;;;-0.63;100.00
52777;BME280;38656;54.260;20.822;2022-12-05T05:56:21;102008.59;;;-0.66;100.00
52777;BME280;38656;54.260;20.822;2022-12-05T05:58:47;102000.84;;;-0.71;100.00
52777;BME280;38656;54.260;20.822;2022-12-05T06:01:19;101989.78;;;-0.90;100.00
52777;BME280;38656;54.260;20.822;2022-12-05T06:03:46;102002.75;;;-0.88;100.00
52777;BME280;38656;54.260;20.822;2022-12-05T06:06:13;102002.69;;;-0.82;100.00
52777;BME280;38656;54.260;20.822;2022-12-05T06:08:41;102008.81;;;-0.94;100.00
52777;BME280;38656;54.260;20.822;2022-12-05T06:11:16;102005.38;;;-0.95;100.00
52777;BME280;38656;54.260;20.822;2022-12-05T06:13:43;101999.22;;;-0.84;100.00
52777;BME280;38656;54.260;20.822;2022-12-05T06:16:11;102002.69;;;-0.82;100.00
52777;BME280;38656;54.260;20.822;2022-12-05T06:18:37;101999.22;;;-0.84;100.00
52777;BME280;38656;54.260;20.822;2022-12-05T06:21:04;102000.91;;;-0.77;100.00
52777;BME280;38656;54.260;20.822;2022-12-05T06:23:39;102008.88;;;-1.02;100.00
52777;BME280;38656;54.260;20.822;2022-12-05T06:26:08;102011.38;;;-0.90;100.00
52777;BME280;38656;54.260;20.822;2022-12-05T06:28:35;102006.31;;;-1.05;100.00
52777;BME280;38656;54.260;20.822;2022-12-05T06:31:18;102006.25;;;-0.96;100.00
52777;BME280;38656;54.260;20.822;2022-12-05T06:33:45;102000.13;;;-0.87;100.00
52777;BME280;38656;54.260;20.822;2022-12-05T06:36:14;102001.06;;;-0.99;100.00
52777;BME280;38656;54.260;20.822;2022-12-05T06:38:41;101997.59;;;-0.95;100.00
52777;BME280;38656;54.260;20.822;2022-12-05T06:41:10;101997.47;;;-0.79;100.00
52777;BME280;38656;54.260;20.822;2022-12-05T06:43:36;102003.63;;;-0.91;100.00
52777;BME280;38656;54.260;20.822;2022-12-05T06:46:08;101995.78;;;-0.86;100.00
52777;BME280;38656;54.260;20.822;2022-12-05T06:48:35;101999.31;;;-0.97;100.00
52777;BME280;38656;54.260;20.822;2022-12-05T06:51:01;101994.09;;;-0.91;100.00
52777;BME280;38656;54.260;20.822;2022-12-05T06:53:28;101988.09;;;-0.97;100.00
52777;BME280;38656;54.260;20.822;2022-12-05T06:56:06;101989.03;;;-1.09;100.00
52777;BME280;38656;54.260;20.822;2022-12-05T06:58:33;101985.47;;;-0.93;100.00
52777;BME280;38656;54.260;20.822;2022-12-05T07:00:59;101988.81;;;-0.81;100.00
52777;BME280;38656;54.260;20.822;2022-12-05T07:03:44;101989.66;;;-0.75;100.00
52777;BME280;38656;54.260;20.822;2022-12-05T07:06:12;101993.09;;;-0.74;100.00
52777;BME280;38656;54.260;20.822;2022-12-05T07:08:38;102002.66;;;-0.79;100.00
52777;BME280;38656;54.260;20.822;2022-12-05T07:11:09;101995.66;;;-0.71;100.00
52777;BME280;38656;54.260;20.822;2022-12-05T07:13:36;102009.44;;;-0.63;100.00
52777;BME280;38656;54.260;20.822;2022-12-05T07:16:02;102000.88;;;-0.74;100.00
52777;BME280;38656;54.260;20.822;2022-12-05T07:18:32;102003.38;;;-0.62;100.00
52777;BME280;38656;54.260;20.822;2022-12-05T07:21:03;102006.09;;;-0.79;100.00
52777;BME280;38656;54.260;20.822;2022-12-05T07:23:29;102012.19;;;-0.83;100.00
52777;BME280;38656;54.260;20.822;2022-12-05T07:25:56;102007.84;;;-0.79;100.00
52777;BME280;38656;54.260;20.822;2022-12-05T07:28:25;102001.72;;;-0.69;100.00
52777;BME280;38656;54.260;20.822;2022-12-05T07:31:02;102002.66;;;-0.79;100.00
52777;BME280;38656;54.260;20.822;2022-12-05T07:33:29;102007.97;;;-0.95;100.00
52777;BME280;38656;54.260;20.822;2022-12-05T07:36:03;102007.81;;;-0.76;100.00
52777;BME280;38656;54.260;20.822;2022-12-05T07:38:30;102011.44;;;-0.96;100.00
52777;BME280;38656;54.260;20.822;2022-12-05T07:40:56;102008.81;;;-0.93;100.00
52777;BME280;38656;54.260;20.822;2022-12-05T07:43:23;102001.81;;;-0.80;100.00
52777;BME280;38656;54.260;20.822;2022-12-05T07:45:50;102001.00;;;-0.90;100.00
52777;BME280;38656;54.260;20.822;2022-12-05T07:48:16;101997.56;;;-0.88;100.00
52777;BME280;38656;54.260;20.822;2022-12-05T07:50:42;102004.41;;;-0.84;100.00
52777;BME280;38656;54.260;20.822;2022-12-05T07:53:08;102007.94;;;-0.88;100.00
52777;BME280;38656;54.260;20.822;2022-12-05T07:55:37;102003.69;;;-1.00;100.00
52777;BME280;38656;54.260;20.822;2022-12-05T07:58:03;101992.28;;;-0.79;100.00
52777;BME280;38656;54.260;20.822;2022-12-05T08:00:29;101996.69;;;-0.92;100.00
52777;BME280;38656;54.260;20.822;2022-12-05T08:02:55;102002.78;;;-0.96;100.00
52777;BME280;38656;54.260;20.822;2022-12-05T08:05:22;102007.00;;;-0.80;100.00
52777;BME280;38656;54.260;20.822;2022-12-05T08:07:48;102010.59;;;-0.98;100.00
52777;BME280;38656;54.260;20.822;2022-12-05T08:10:14;102004.41;;;-0.84;100.00
52777;BME280;38656;54.260;20.822;2022-12-05T08:12:40;102011.38;;;-0.90;100.00
52777;BME280;38656;54.260;20.822;2022-12-05T08:15:07;101996.69;;;-0.91;100.00
52777;BME280;38656;54.260;20.822;2022-12-05T08:17:33;102007.88;;;-0.81;100.00
52777;BME280;38656;54.260;20.822;2022-12-05T08:20:00;102000.03;;;-0.75;100.00
52777;BME280;38656;54.260;20.822;2022-12-05T08:22:27;102001.06;;;-0.96;100.00
52777;BME280;38656;54.260;20.822;2022-12-05T08:24:53;102008.84;;;-0.99;100.00
52777;BME280;38656;54.260;20.822;2022-12-05T08:27:19;102009.63;;;-0.87;100.00
52777;BME280;38656;54.260;20.822;2022-12-05T08:29:45;102011.50;;;-1.08;100.00
52777;BME280;38656;54.260;20.822;2022-12-05T08:32:11;102007.94;;;-0.88;100.00
52777;BME280;38656;54.260;20.822;2022-12-05T08:34:37;102010.56;;;-0.96;100.00
52777;BME280;38656;54.260;20.822;2022-12-05T08:37:04;102014.78;;;-0.86;100.00
52777;BME280;38656;54.260;20.822;2022-12-05T08:39:30;102013.94;;;-0.86;100.00
52777;BME280;38656;54.260;20.822;2022-12-05T08:41:56;102023.53;;;-0.95;100.00
52777;BME280;38656;54.260;20.822;2022-12-05T08:44:23;102017.38;;;-0.86;100.00
52777;BME280;38656;54.260;20.822;2022-12-05T08:46:50;102018.34;;;-0.95;100.00
52777;BME280;38656;54.260;20.822;2022-12-05T08:49:16;102019.16;;;-0.91;100.00
52777;BME280;38656;54.260;20.822;2022-12-05T08:51:43;102013.00;;;-0.76;100.00
52777;BME280;38656;54.260;20.822;2022-12-05T08:54:10;102017.38;;;-0.80;100.00
52777;BME280;38656;54.260;20.822;2022-12-05T08:56:36;102026.88;;;-0.80;100.00
52777;BME280;38656;54.260;20.822;2022-12-05T08:59:03;102030.31;;;-0.78;100.00
52777;BME280;38656;54.260;20.822;2022-12-05T09:01:30;102018.28;;;-0.88;100.00
52777;BME280;38656;54.260;20.822;2022-12-05T09:03:58;102015.69;;;-0.87;100.00
52777;BME280;38656;54.260;20.822;2022-12-05T09:06:29;102013.03;;;-0.79;100.00
52777;BME280;38656;54.260;20.822;2022-12-05T09:08:58;102008.81;;;-0.94;100.00
52777;BME280;38656;54.260;20.822;2022-12-05T09:11:27;102000.22;;;-0.96;100.00
52777;BME280;38656;54.260;20.822;2022-12-05T09:13:57;101999.22;;;-0.84;100.00
52777;BME280;38656;54.260;20.822;2022-12-05T09:16:29;101994.97;;;-0.92;100.00
52777;BME280;38656;54.260;20.822;2022-12-05T09:18:56;102003.63;;;-0.94;100.00
52777;BME280;38656;54.260;20.822;2022-12-05T09:21:25;101989.00;;;-1.01;100.00
52777;BME280;38656;54.260;20.822;2022-12-05T09:23:52;101981.97;;;-0.85;100.00
52777;BME280;38656;54.260;20.822;2022-12-05T09:26:21;101975.03;;;-0.83;100.00
52777;BME280;38656;54.260;20.822;2022-12-05T09:28:49;101977.59;;;-0.80;100.00
52777;BME280;38656;54.260;20.822;2022-12-05T09:31:23;101969.75;;;-0.74;100.00
52777;BME280;38656;54.260;20.822;2022-12-05T09:33:51;101964.63;;;-0.80;100.00
52777;BME280;38656;54.260;20.822;2022-12-05T09:36:23;101957.75;;;-0.84;100.00
52777;BME280;38656;54.260;20.822;2022-12-05T09:38:50;101963.06;;;-1.00;100.00
52777;BME280;38656;54.260;20.822;2022-12-05T09:42:36;101953.41;;;-0.82;100.00
52777;BME280;38656;54.260;20.822;2022-12-05T09:55:24;101943.03;;;-0.82;100.00
52777;BME280;38656;54.260;20.822;2022-12-05T09:57:57;101936.22;;;-0.94;100.00
52777;BME280;38656;54.260;20.822;2022-12-05T10:00:28;101946.63;;;-0.99;100.00
52777;BME280;38656;54.260;20.822;2022-12-05T10:03:21;101939.56;;;-0.78;100.00
52777;BME280;38656;54.260;20.822;2022-12-05T10:06:19;101936.97;;;-0.81;100.00
52777;BME280;38656;54.260;20.822;2022-12-05T10:11:27;101931.84;;;-0.87;100.00
52777;BME280;38656;54.260;20.822;2022-12-05T10:14:51;101928.41;;;-0.90;100.00
52777;BME280;38656;54.260;20.822;2022-12-05T10:17:03;101929.09;;;-0.69;100.00
52777;BME280;38656;54.260;20.822;2022-12-05T10:19:35;101935.31;;;-0.85;100.00
52777;BME280;38656;54.260;20.822;2022-12-05T10:22:14;101924.94;;;-0.85;100.00
52777;BME280;38656;54.260;20.822;2022-12-05T10:24:48;101918.16;;;-1.02;100.00
52777;BME280;38656;54.260;20.822;2022-12-05T10:27:20;101917.22;;;-0.92;100.00
52777;BME280;38656;54.260;20.822;2022-12-05T10:30:06;101909.34;;;-0.84;100.00
52777;BME280;38656;54.260;20.822;2022-12-05T10:32:53;101910.41;;;-1.07;100.00
52777;BME280;38656;54.260;20.822;2022-12-05T10:35:36;101905.97;;;-0.94;100.00
52777;BME280;38656;54.260;20.822;2022-12-05T10:38:11;101889.47;;;-0.85;100.00
52777;BME280;38656;54.260;20.822;2022-12-05T10:40:43;101897.34;;;-0.96;100.00
52777;BME280;38656;54.260;20.822;2022-12-05T10:43:14;101889.50;;;-0.86;100.00
52777;BME280;38656;54.260;20.822;2022-12-05T10:45:46;101895.72;;;-1.06;100.00
52777;BME280;38656;54.260;20.822;2022-12-05T10:48:15;101890.34;;;-0.87;100.00
52777;BME280;38656;54.260;20.822;2022-12-05T10:50:43;101892.13;;;-0.93;100.00
52777;BME280;38656;54.260;20.822;2022-12-05T10:53:26;101892.38;;;-1.17;100.00
52777;BME280;38656;54.260;20.822;2022-12-05T10:55:54;101889.63;;;-1.00;100.00
52777;BME280;38656;54.260;20.822;2022-12-05T10:58:26;101893.28;;;-1.26;100.00
52777;BME280;38656;54.260;20.822;2022-12-05T11:01:12;101887.22;;;-1.27;100.00
52777;BME280;38656;54.260;20.822;2022-12-05T11:03:42;101880.19;;;-1.09;100.00
52777;BME280;38656;54.260;20.822;2022-12-05T11:06:27;101873.19;;;-0.98;100.00
52777;BME280;38656;54.260;20.822;2022-12-05T11:08:56;101865.44;;;-1.01;100.00
52777;BME280;38656;54.260;20.822;2022-12-05T11:11:25;101869.56;;;-0.81;100.00
52777;BME280;38656;54.260;20.822;2022-12-05T11:14:01;101866.03;;;-0.74;100.00
52777;BME280;38656;54.260;20.822;2022-12-05T11:16:34;101870.59;;;-0.98;100.00
52777;BME280;38656;54.260;20.822;2022-12-05T11:19:30;101858.47;;;-0.97;100.00
52777;BME280;38656;54.260;20.822;2022-12-05T11:21:57;101869.00;;;-1.14;100.00
52777;BME280;38656;54.260;20.822;2022-12-05T11:24:37;101873.31;;;-1.13;100.00
52777;BME280;38656;54.260;20.822;2022-12-05T11:27:30;101868.91;;;-1.02;100.00
52777;BME280;38656;54.260;20.822;2022-12-05T11:32:38;101859.59;;;-1.25;100.00
52777;BME280;38656;54.260;20.822;2022-12-05T11:35:25;101862.09;;;-1.14;100.00
52777;BME280;38656;54.260;20.822;2022-12-05T11:37:56;101864.53;;;-0.97;100.00
52777;BME280;38656;54.260;20.822;2022-12-05T11:54:21;101852.63;;;-1.19;100.00
52777;BME280;38656;54.260;20.822;2022-12-05T12:10:42;101844.97;;;-1.32;100.00
52777;BME280;38656;54.260;20.822;2022-12-05T12:24:18;101795.69;;;-1.26;100.00
52777;BME280;38656;54.260;20.822;2022-12-05T12:26:59;101790.41;;;-1.16;100.00
52777;BME280;38656;54.260;20.822;2022-12-05T12:32:45;101786.13;;;-1.17;100.00
52777;BME280;38656;54.260;20.822;2022-12-05T12:40:55;101765.38;;;-1.16;100.00
52777;BME280;38656;54.260;20.822;2022-12-05T12:51:14;101771.47;;;-1.21;100.00
52777;BME280;38656;54.260;20.822;2022-12-05T13:05:38;101766.22;;;-1.15;100.00
52777;BME280;38656;54.260;20.822;2022-12-05T13:08:52;101768.72;;;-1.06;100.00
52777;BME280;38656;54.260;20.822;2022-12-05T13:10:58;101764.47;;;-1.16;100.00
52777;BME280;38656;54.260;20.822;2022-12-05T13:13:32;101774.81;;;-1.13;100.00
52777;BME280;38656;54.260;20.822;2022-12-05T13:16:02;101771.41;;;-1.15;100.00
52777;BME280;38656;54.260;20.822;2022-12-05T13:18:28;101770.34;;;-0.97;100.00
52777;BME280;38656;54.260;20.822;2022-12-05T13:20:57;101767.91;;;-1.11;100.00
52777;BME280;38656;54.260;20.822;2022-12-05T13:23:30;101761.06;;;-1.18;100.00
52777;BME280;38656;54.260;20.822;2022-12-05T13:25:59;101766.00;;;-0.97;100.00
52777;BME280;38656;54.260;20.822;2022-12-05T13:30:58;101759.31;;;-1.16;100.00
52777;BME280;38656;54.260;20.822;2022-12-05T13:33:49;101762.69;;;-1.08;100.00
52777;BME280;38656;54.260;20.822;2022-12-05T13:36:21;101754.91;;;-1.07;100.00
52777;BME280;38656;54.260;20.822;2022-12-05T13:39:22;101750.53;;;-1.03;100.00
52777;BME280;38656;54.260;20.822;2022-12-05T13:42:20;101755.16;;;-1.34;100.00
52777;BME280;38656;54.260;20.822;2022-12-05T13:52:30;101750.50;;;-1.00;100.00
52777;BME280;38656;54.260;20.822;2022-12-05T13:55:03;101745.44;;;-1.12;100.00
52777;BME280;38656;54.260;20.822;2022-12-05T14:10:19;101734.31;;;-1.23;100.00
52777;BME280;38656;54.260;20.822;2022-12-05T14:12:59;101730.06;;;-1.26;100.00
52777;BME280;38656;54.260;20.822;2022-12-05T14:15:34;101726.44;;;-1.11;100.00
52777;BME280;38656;54.260;20.822;2022-12-05T14:18:26;101726.41;;;-1.08;100.00
52777;BME280;38656;54.260;20.822;2022-12-05T14:21:13;101716.00;;;-1.05;100.00
52777;BME280;38656;54.260;20.822;2022-12-05T14:34:22;101705.66;;;-1.08;100.00
52777;BME280;38656;54.260;20.822;2022-12-05T14:37:05;101704.00;;;-1.15;100.00
52777;BME280;38656;54.260;20.822;2022-12-05T14:39:39;101709.47;;;-1.40;100.00
52777;BME280;38656;54.260;20.822;2022-12-05T14:44:54;101698.97;;;-1.28;100.00
52777;BME280;38656;54.260;20.822;2022-12-05T14:47:30;101711.03;;;-1.27;100.00
52777;BME280;38656;54.260;20.822;2022-12-05T14:58:27;101704.28;;;-1.38;100.00
52777;BME280;38656;54.260;20.822;2022-12-05T15:00:58;101694.41;;;-1.07;100.00
52777;BME280;38656;54.260;20.822;2022-12-05T15:03:30;101692.16;;;-1.38;100.00
52777;BME280;38656;54.260;20.822;2022-12-05T15:05:58;101692.81;;;-1.17;100.00
52777;BME280;38656;54.260;20.822;2022-12-05T15:08:27;101698.97;;;-1.26;100.00
52777;BME280;38656;54.260;20.822;2022-12-05T15:10:55;101684.81;;;-0.99;100.00
52777;BME280;38656;54.260;20.822;2022-12-05T15:13:23;101670.06;;;-0.95;100.00
52777;BME280;38656;54.260;20.822;2022-12-05T15:16:14;101674.50;;;-1.02;100.00
52777;BME280;38656;54.260;20.822;2022-12-05T15:18:48;101669.44;;;-1.13;100.00
52777;BME280;38656;54.260;20.822;2022-12-05T15:21:43;101672.72;;;-1.00;100.00
52777;BME280;38656;54.260;20.822;2022-12-05T15:24:13;101668.44;;;-1.02;100.00
52777;BME280;38656;54.260;20.822;2022-12-05T15:26:54;101668.50;;;-1.09;100.00